createdAt,value
2023-11-07T00:02:14.055Z,6.62
2023-11-07T00:06:17.401Z,6.58
2023-11-07T00:10:21.940Z,6.58
2023-11-07T00:14:25.482Z,6.59
2023-11-07T00:18:29.042Z,6.60
2023-11-07T00:22:32.769Z,6.61
2023-11-07T00:26:37.184Z,6.61
2023-11-07T00:30:40.605Z,6.60
2023-11-07T00:34:43.715Z,6.56
2023-11-07T00:38:47.050Z,6.52
2023-11-07T00:42:51.452Z,6.50
2023-11-07T00:46:54.815Z,6.48
2023-11-07T00:50:58.027Z,6.41
2023-11-07T00:55:01.715Z,6.37
2023-11-07T00:59:06.628Z,6.33
2023-11-07T01:03:10.628Z,6.30
2023-11-07T01:07:13.995Z,6.30
2023-11-07T01:11:17.439Z,6.30
2023-11-07T01:15:21.976Z,6.33
2023-11-07T01:19:25.446Z,6.34
2023-11-07T01:23:28.613Z,6.34
2023-11-07T01:27:32.559Z,6.35
2023-11-07T01:31:36.975Z,6.41
2023-11-07T01:35:40.642Z,6.45
2023-11-07T01:39:43.677Z,6.46
2023-11-07T01:43:47.780Z,6.47
2023-11-07T01:47:53.494Z,6.51
2023-11-07T01:51:59.458Z,6.53
2023-11-07T01:56:03.380Z,6.55
2023-11-07T02:00:13.246Z,6.60
2023-11-07T02:04:17.840Z,6.65
2023-11-07T02:08:24.207Z,6.69
2023-11-07T02:12:27.228Z,6.74
2023-11-07T02:16:30.737Z,6.78
2023-11-07T02:20:38.113Z,6.81
2023-11-07T02:24:43.000Z,6.81
2023-11-07T02:28:47.037Z,6.83
2023-11-07T02:32:50.535Z,6.86
2023-11-07T02:36:54.023Z,6.88
2023-11-07T02:40:59.352Z,6.90
2023-11-07T02:45:02.401Z,6.95
2023-11-07T02:49:06.933Z,6.97
2023-11-07T02:53:10.074Z,6.97
2023-11-07T02:57:14.846Z,6.96
2023-11-07T03:01:23.045Z,6.94
2023-11-07T03:05:26.670Z,6.95
2023-11-07T03:09:29.697Z,6.96
2023-11-07T03:13:35.920Z,6.95
2023-11-07T03:17:38.993Z,6.93
2023-11-07T03:21:42.459Z,6.93
2023-11-07T03:25:45.515Z,6.92
2023-11-07T03:29:50.366Z,6.89
2023-11-07T03:33:54.034Z,6.82
2023-11-07T03:37:57.357Z,6.80
2023-11-07T03:42:01.895Z,6.78
2023-11-07T03:46:08.324Z,6.77
2023-11-07T03:50:11.991Z,6.79
2023-11-07T03:54:15.478Z,6.81
2023-11-07T03:58:18.605Z,6.85
2023-11-07T04:02:23.412Z,6.86
2023-11-07T04:06:26.519Z,6.86
2023-11-07T04:10:30.422Z,6.84
2023-11-07T04:14:33.712Z,6.85
2023-11-07T04:18:38.578Z,6.83
2023-11-07T04:22:42.354Z,6.79
2023-11-07T04:26:46.041Z,6.75
2023-11-07T04:30:49.158Z,6.71
2023-11-07T04:34:53.993Z,6.69
2023-11-07T04:38:57.046Z,6.69
2023-11-07T04:43:02.480Z,6.69
2023-11-07T04:47:06.615Z,6.70
2023-11-07T04:51:12.624Z,6.71
2023-11-07T04:55:15.676Z,6.74
2023-11-07T04:59:19.151Z,6.77
2023-11-07T05:03:27.720Z,6.79
2023-11-07T05:07:38.920Z,6.84
2023-11-07T05:11:41.985Z,6.89
2023-11-07T05:15:47.345Z,6.94
2023-11-07T05:19:50.401Z,6.97
2023-11-07T05:23:55.075Z,6.99
2023-11-07T05:27:58.135Z,7.00
2023-11-07T05:32:01.493Z,7.02
2023-11-07T05:36:04.764Z,6.94
2023-11-07T05:40:14.873Z,6.90
2023-11-07T05:44:18.063Z,6.88
2023-11-07T05:48:26.233Z,6.84
2023-11-07T05:52:29.349Z,6.79
2023-11-07T05:56:34.066Z,6.75
2023-11-07T06:00:37.105Z,6.71
2023-11-07T06:04:40.630Z,6.64
2023-11-07T06:08:43.846Z,6.63
2023-11-07T06:12:48.564Z,6.63
2023-11-07T06:16:53.944Z,6.62
2023-11-07T06:20:57.323Z,6.60
2023-11-07T06:25:00.976Z,6.63
2023-11-07T06:29:06.754Z,6.59
2023-11-07T06:33:10.351Z,6.57
2023-11-07T06:37:13.954Z,6.56
2023-11-07T06:41:18.892Z,6.54
2023-11-07T06:45:24.839Z,6.48
2023-11-07T06:49:27.990Z,6.42
2023-11-07T06:53:31.729Z,6.44
2023-11-07T06:57:35.043Z,6.49
2023-11-07T07:01:39.860Z,6.54
2023-11-07T07:05:43.142Z,6.58
2023-11-07T07:09:46.549Z,6.61
2023-11-07T07:13:50.175Z,6.63
2023-11-07T07:17:55.310Z,6.73
2023-11-07T07:21:58.574Z,6.78
2023-11-07T07:26:02.588Z,6.82
2023-11-07T07:30:07.535Z,6.87
2023-11-07T07:34:12.377Z,6.92
2023-11-07T07:38:15.513Z,6.96
2023-11-07T07:42:19.856Z,7.02
2023-11-07T07:46:28.887Z,7.09
2023-11-07T07:50:34.489Z,7.16
2023-11-07T07:55:00.085Z,7.23
2023-11-07T07:59:01.805Z,7.30
2023-11-07T08:03:08.643Z,7.36
2023-11-07T08:07:18.214Z,7.46
2023-11-07T08:11:22.240Z,7.55
2023-11-07T08:15:28.305Z,7.66
2023-11-07T08:19:31.357Z,7.73
2023-11-07T08:23:35.748Z,7.82
2023-11-07T08:27:40.043Z,7.91
2023-11-07T08:31:43.369Z,8.01
2023-11-07T08:35:47.893Z,8.10
2023-11-07T08:39:53.015Z,8.20
2023-11-07T08:43:56.052Z,8.29
2023-11-07T08:48:00.047Z,8.41
2023-11-07T08:52:06.082Z,8.52
2023-11-07T08:56:11.189Z,8.61
2023-11-07T09:00:22.619Z,8.70
2023-11-07T09:04:26.822Z,8.78
2023-11-07T09:08:30.265Z,8.86
2023-11-07T09:12:35.468Z,8.90
2023-11-07T09:16:38.510Z,8.95
2023-11-07T09:20:42.172Z,8.97
2023-11-07T09:24:46.572Z,9.01
2023-11-07T09:28:52.196Z,9.05
2023-11-07T09:32:57.927Z,9.07
2023-11-07T09:37:01.562Z,9.11
2023-11-07T09:41:06.592Z,9.19
2023-11-07T09:45:16.645Z,9.21
2023-11-07T09:49:20.912Z,9.24
2023-11-07T09:53:24.310Z,9.30
2023-11-07T09:57:28.254Z,9.34
2023-11-07T10:01:32.995Z,9.37
2023-11-07T10:05:40.109Z,9.43
2023-11-07T10:09:46.145Z,9.49
2023-11-07T10:14:02.099Z,9.53
2023-11-07T10:18:13.275Z,9.60
2023-11-07T10:22:17.116Z,9.67
2023-11-07T10:26:20.507Z,9.74
2023-11-07T10:30:23.970Z,9.82
2023-11-07T10:34:28.759Z,9.93
2023-11-07T10:38:32.411Z,10.01
2023-11-07T10:42:36.163Z,10.11
2023-11-07T10:46:39.564Z,10.21
2023-11-07T10:50:44.707Z,10.30
2023-11-07T10:54:47.908Z,10.37
2023-11-07T10:59:02.760Z,10.46
2023-11-07T11:07:19.553Z,10.56
2023-11-07T11:11:28.166Z,10.61
2023-11-07T11:15:35.884Z,10.69
2023-11-07T11:19:45.456Z,10.78
2023-11-07T11:24:03.357Z,10.85
2023-11-07T11:28:07.102Z,10.89
2023-11-07T11:32:28.351Z,10.96
2023-11-07T11:36:35.689Z,11.01
2023-11-07T11:40:56.481Z,11.04
2023-11-07T11:45:40.393Z,11.15
2023-11-07T11:50:23.202Z,11.25
2023-11-07T11:54:54.179Z,11.33
2023-11-07T11:59:10.781Z,11.40
2023-11-07T12:03:19.601Z,11.47
2023-11-07T12:07:26.317Z,11.51
2023-11-07T12:11:40.732Z,11.52
2023-11-07T12:15:49.684Z,11.50
2023-11-07T12:20:04.388Z,11.53
2023-11-07T12:24:08.521Z,11.56
2023-11-07T12:28:11.890Z,11.60
2023-11-07T12:32:22.664Z,11.63
2023-11-07T12:36:26.659Z,11.65
2023-11-07T12:40:30.404Z,11.63
2023-11-07T12:44:33.538Z,11.59
2023-11-07T12:48:39.300Z,11.55
2023-11-07T12:52:55.332Z,11.52
2023-11-07T12:56:58.681Z,11.53
2023-11-07T13:01:05.410Z,11.59
2023-11-07T13:05:17.799Z,11.65
2023-11-07T13:09:22.481Z,11.69
2023-11-07T13:13:27.884Z,11.72
2023-11-07T13:17:31.118Z,11.77
2023-11-07T13:21:37.307Z,11.76
2023-11-07T13:25:40.319Z,11.82
2023-11-07T13:29:45.084Z,11.82
2023-11-07T13:33:48.640Z,11.88
2023-11-07T13:37:54.029Z,11.92
2023-11-07T13:41:57.128Z,11.95
2023-11-07T13:46:00.550Z,11.99
2023-11-07T13:50:06.162Z,12.01
2023-11-07T13:54:11.295Z,12.06
2023-11-07T13:58:14.411Z,12.00
2023-11-07T14:02:17.865Z,12.01
2023-11-07T14:06:21.994Z,12.06
2023-11-07T14:10:28.396Z,12.10
2023-11-07T14:14:32.910Z,12.10
2023-11-07T14:18:36.548Z,12.09
2023-11-07T14:22:40.583Z,12.06
2023-11-07T14:26:46.055Z,12.02
2023-11-07T14:30:49.344Z,11.99
2023-11-07T14:34:52.622Z,11.98
2023-11-07T14:38:55.696Z,11.93
2023-11-07T14:43:05.447Z,11.96
2023-11-07T14:47:10.681Z,11.99
2023-11-07T14:51:14.069Z,11.97
2023-11-07T14:55:19.208Z,11.93
2023-11-07T14:59:25.790Z,11.89
2023-11-07T15:03:29.351Z,11.86
2023-11-07T15:07:33.043Z,11.85
2023-11-07T15:11:36.030Z,11.79
2023-11-07T15:15:41.888Z,11.74
2023-11-07T15:19:45.288Z,11.70
2023-11-07T15:23:48.719Z,11.62
2023-11-07T15:27:52.003Z,11.52
2023-11-07T15:31:56.713Z,11.44
2023-11-07T15:36:01.327Z,11.39
2023-11-07T15:40:08.362Z,11.32
2023-11-07T15:44:11.529Z,11.25
2023-11-07T15:52:20.642Z,11.21
2023-11-07T15:56:24.063Z,11.21
2023-11-07T16:00:27.718Z,11.22
2023-11-07T16:04:33.165Z,11.22
2023-11-07T16:08:37.093Z,11.21
2023-11-07T16:12:41.661Z,11.19
2023-11-07T16:16:45.669Z,11.17
2023-11-07T16:20:50.435Z,11.14
2023-11-07T16:24:53.913Z,11.10
2023-11-07T16:28:57.467Z,11.05
2023-11-07T16:33:00.615Z,10.97
2023-11-07T16:37:05.663Z,10.90
2023-11-07T16:41:08.758Z,10.86
2023-11-07T16:45:15.193Z,10.81
2023-11-07T16:49:20.191Z,10.80
2023-11-07T16:53:24.959Z,10.79
2023-11-07T16:57:27.979Z,10.77
2023-11-07T17:01:31.045Z,10.76
2023-11-07T17:05:36.688Z,10.75
2023-11-07T17:09:41.418Z,10.75
2023-11-07T17:13:44.482Z,10.74
2023-11-07T17:17:51.830Z,10.75
2023-11-07T17:21:57.460Z,10.75
2023-11-07T17:26:02.901Z,10.73
2023-11-07T17:30:08.583Z,10.71
2023-11-07T17:34:14.409Z,10.69
2023-11-07T17:38:17.827Z,10.68
2023-11-07T17:42:22.596Z,10.68
2023-11-07T17:46:25.749Z,10.66
2023-11-07T17:50:29.261Z,10.61
2023-11-07T17:54:32.372Z,10.58
2023-11-07T17:58:40.484Z,10.54
2023-11-07T18:02:44.005Z,10.49
2023-11-07T18:06:47.630Z,10.47
2023-11-07T18:10:50.681Z,10.41
2023-11-07T18:14:55.573Z,10.35
2023-11-07T18:19:00.871Z,10.32
2023-11-07T18:23:04.514Z,10.32
2023-11-07T18:27:07.795Z,10.32
2023-11-07T18:31:12.543Z,10.34
2023-11-07T18:35:15.641Z,10.33
2023-11-07T18:39:19.597Z,10.31
2023-11-07T18:43:22.721Z,10.28
2023-11-07T18:47:28.338Z,10.27
2023-11-07T18:51:32.679Z,10.24
2023-11-07T18:55:35.873Z,10.23
2023-11-07T18:59:38.931Z,10.23
2023-11-07T19:03:43.665Z,10.27
2023-11-07T19:07:47.067Z,10.28
2023-11-07T19:11:50.566Z,10.28
2023-11-07T19:15:53.559Z,10.25
2023-11-07T19:19:58.276Z,10.22
2023-11-07T19:24:01.892Z,10.20
2023-11-07T19:28:05.917Z,10.18
2023-11-07T19:32:09.578Z,10.17
2023-11-07T19:36:14.967Z,10.16
2023-11-07T19:40:21.793Z,10.17
2023-11-07T19:44:25.286Z,10.16
2023-11-07T19:48:28.591Z,10.13
2023-11-07T19:52:34.835Z,10.12
2023-11-07T19:56:38.914Z,10.08
2023-11-07T20:00:42.362Z,10.07
2023-11-07T20:04:46.513Z,10.05
2023-11-07T20:08:51.821Z,10.02
2023-11-07T20:12:54.950Z,9.99
2023-11-07T20:16:58.392Z,9.98
2023-11-07T20:21:02.298Z,9.94
2023-11-07T20:25:10.031Z,9.92
2023-11-07T20:29:13.406Z,9.91
2023-11-07T20:33:17.230Z,9.86
2023-11-07T20:37:21.222Z,9.79
2023-11-07T20:41:29.236Z,9.72
2023-11-07T20:45:35.193Z,9.69
2023-11-07T20:49:45.640Z,9.69
2023-11-07T20:53:52.031Z,9.69
2023-11-07T20:58:02.227Z,9.69
2023-11-07T21:02:09.278Z,9.67
2023-11-07T21:06:13.081Z,9.62
2023-11-07T21:10:16.583Z,9.57
2023-11-07T21:14:21.380Z,9.56
2023-11-07T21:18:24.759Z,9.50
2023-11-07T21:22:28.829Z,9.46
2023-11-07T21:26:31.826Z,9.42
2023-11-07T21:30:36.680Z,9.38
2023-11-07T21:34:41.858Z,9.37
2023-11-07T21:38:45.247Z,9.36
2023-11-07T21:42:48.264Z,9.33
2023-11-07T21:46:53.102Z,9.33
2023-11-07T21:50:56.843Z,9.30
2023-11-07T21:54:59.941Z,9.30
2023-11-07T21:59:03.048Z,9.33
2023-11-07T22:03:08.011Z,9.27
2023-11-07T22:07:11.480Z,9.21
2023-11-07T22:11:14.575Z,9.20
2023-11-07T22:15:17.677Z,9.18
2023-11-07T22:19:22.457Z,9.11
2023-11-07T22:23:26.097Z,9.07
2023-11-07T22:27:29.490Z,9.05
2023-11-07T22:31:32.537Z,9.05
2023-11-07T22:35:36.919Z,9.01
2023-11-07T22:39:39.997Z,8.99
2023-11-07T22:43:43.637Z,8.97
2023-11-07T22:47:46.852Z,8.95
2023-11-07T22:51:51.944Z,8.92
2023-11-07T22:55:56.282Z,8.88
2023-11-07T23:00:00.721Z,8.82
2023-11-07T23:04:25.839Z,8.76
2023-11-07T23:08:30.752Z,8.76
2023-11-07T23:12:34.121Z,8.71
2023-11-07T23:16:38.998Z,8.70
2023-11-07T23:20:42.816Z,8.68
2023-11-07T23:24:48.653Z,8.70
2023-11-07T23:28:51.679Z,8.72
2023-11-07T23:32:56.382Z,8.75
2023-11-07T23:37:00.192Z,8.75
2023-11-07T23:41:06.299Z,8.76
2023-11-07T23:45:10.641Z,8.78
2023-11-07T23:49:14.544Z,8.75
2023-11-07T23:53:17.974Z,8.74
2023-11-07T23:57:23.185Z,8.73
